createdAt,value
2023-03-17T00:01:38.259Z,18.50
2023-03-17T00:04:07.112Z,18.80
2023-03-17T00:06:35.362Z,25.00
2023-03-17T00:09:03.734Z,24.90
2023-03-17T00:11:32.399Z,21.70
2023-03-17T00:14:01.756Z,20.90
2023-03-17T00:16:31.843Z,18.50
2023-03-17T00:19:06.547Z,20.40
2023-03-17T00:21:35.977Z,25.50
2023-03-17T00:24:06.732Z,27.70
2023-03-17T00:26:36.279Z,26.80
2023-03-17T00:29:06.164Z,28.80
2023-03-17T00:31:35.215Z,33.80
2023-03-17T00:34:08.179Z,36.80
2023-03-17T00:36:37.568Z,43.10
2023-03-17T00:39:07.129Z,46.00
2023-03-17T00:41:37.822Z,53.70
2023-03-17T00:44:08.229Z,62.40
2023-03-17T00:46:38.328Z,58.30
2023-03-17T00:49:18.921Z,74.40
2023-03-17T00:51:47.606Z,80.10
2023-03-17T00:54:16.985Z,83.30
2023-03-17T00:56:45.870Z,86.30
2023-03-17T00:59:38.349Z,92.50
2023-03-17T01:02:07.371Z,98.50
2023-03-17T01:04:35.821Z,91.40
2023-03-17T01:07:05.098Z,91.40
2023-03-17T01:09:34.202Z,73.00
2023-03-17T01:12:02.707Z,62.00
2023-03-17T01:14:37.816Z,51.90
2023-03-17T01:17:13.078Z,51.70
2023-03-17T01:19:46.525Z,51.50
2023-03-17T01:22:15.717Z,43.80
2023-03-17T01:24:43.970Z,42.30
2023-03-17T01:27:12.570Z,52.00
2023-03-17T01:29:41.789Z,55.70
2023-03-17T01:32:10.870Z,66.80
2023-03-17T01:34:39.956Z,62.00
2023-03-17T01:37:09.876Z,57.80
2023-03-17T01:39:42.229Z,55.60
2023-03-17T01:42:30.373Z,54.10
2023-03-17T01:45:07.404Z,48.30
2023-03-17T01:47:36.357Z,37.40
2023-03-17T01:50:07.720Z,30.70
2023-03-17T01:52:38.715Z,30.10
2023-03-17T01:55:18.067Z,34.20
2023-03-17T01:57:51.605Z,35.40
2023-03-17T02:00:21.433Z,35.10
2023-03-17T02:02:52.950Z,33.00
2023-03-17T02:05:24.307Z,30.20
2023-03-17T02:07:54.587Z,24.00
2023-03-17T02:10:33.734Z,23.10
2023-03-17T02:13:05.699Z,28.70
2023-03-17T02:16:00.655Z,25.80
2023-03-17T02:18:28.898Z,25.70
2023-03-17T02:20:57.163Z,21.80
2023-03-17T02:23:26.396Z,25.50
2023-03-17T02:25:54.846Z,21.80
2023-03-17T02:28:26.218Z,21.30
2023-03-17T02:30:55.083Z,21.30
2023-03-17T02:33:27.857Z,19.60
2023-03-17T02:35:57.643Z,21.20
2023-03-17T02:38:26.356Z,18.50
2023-03-17T02:40:54.660Z,18.90
2023-03-17T02:43:23.839Z,21.40
2023-03-17T02:45:52.021Z,21.60
2023-03-17T02:48:20.681Z,20.60
2023-03-17T02:50:54.906Z,21.30
2023-03-17T02:53:27.310Z,22.60
2023-03-17T02:55:57.926Z,22.90
2023-03-17T02:58:26.140Z,22.70
2023-03-17T03:00:54.803Z,23.50
2023-03-17T03:03:23.463Z,18.70
2023-03-17T03:05:55.605Z,18.90
2023-03-17T03:08:25.609Z,19.20
2023-03-17T03:10:55.143Z,18.30
2023-03-17T03:13:48.760Z,17.80
2023-03-17T03:16:17.602Z,18.80
2023-03-17T03:18:50.230Z,16.60
2023-03-17T03:21:18.995Z,17.00
2023-03-17T03:23:47.241Z,16.60
2023-03-17T03:26:16.955Z,17.40
2023-03-17T03:28:45.231Z,15.30
2023-03-17T03:31:14.069Z,15.20
2023-03-17T03:33:44.276Z,14.90
2023-03-17T03:36:16.589Z,16.70
2023-03-17T03:38:48.077Z,15.20
2023-03-17T03:41:16.849Z,17.50
2023-03-17T03:43:47.125Z,16.30
2023-03-17T03:46:15.910Z,16.40
2023-03-17T03:48:44.211Z,16.70
2023-03-17T03:51:12.493Z,20.00
2023-03-17T03:53:41.118Z,20.70
2023-03-17T03:56:10.117Z,23.20
2023-03-17T03:58:38.698Z,25.70
2023-03-17T04:03:40.409Z,24.40
2023-03-17T04:06:08.744Z,22.60
2023-03-17T04:08:37.719Z,23.20
2023-03-17T04:11:06.388Z,23.20
2023-03-17T04:13:34.713Z,24.20
2023-03-17T04:16:04.160Z,24.90
2023-03-17T04:18:32.646Z,23.40
2023-03-17T04:21:02.079Z,26.20
2023-03-17T04:23:56.334Z,28.70
2023-03-17T04:26:24.722Z,33.90
2023-03-17T04:28:58.774Z,32.10
2023-03-17T04:31:27.733Z,34.60
2023-03-17T04:33:56.068Z,34.40
2023-03-17T04:36:24.610Z,34.20
2023-03-17T04:38:56.119Z,38.40
2023-03-17T04:41:24.361Z,37.40
2023-03-17T04:43:52.926Z,39.60
2023-03-17T04:46:21.547Z,41.90
2023-03-17T04:48:51.459Z,42.80
2023-03-17T04:51:19.862Z,45.70
2023-03-17T04:53:49.781Z,47.20
2023-03-17T04:56:18.315Z,44.10
2023-03-17T04:58:50.652Z,51.00
2023-03-17T05:01:19.224Z,49.50
2023-03-17T05:03:47.621Z,46.60
2023-03-17T05:06:16.462Z,52.70
2023-03-17T05:08:45.173Z,49.70
2023-03-17T05:11:14.823Z,48.90
2023-03-17T05:13:44.617Z,47.30
2023-03-17T05:16:13.098Z,45.50
2023-03-17T05:18:42.196Z,42.90
2023-03-17T05:21:10.796Z,45.10
2023-03-17T05:23:39.172Z,41.10
2023-03-17T05:26:10.825Z,36.20
2023-03-17T05:28:41.399Z,33.10
2023-03-17T05:31:11.186Z,31.00
2023-03-17T05:33:39.970Z,30.80
2023-03-17T05:36:09.915Z,25.90
2023-03-17T05:38:38.543Z,21.00
2023-03-17T05:41:07.028Z,19.60
2023-03-17T05:43:35.587Z,16.80
2023-03-17T05:46:04.247Z,14.20
2023-03-17T05:48:33.281Z,12.30
2023-03-17T05:51:01.928Z,9.60
2023-03-17T05:53:31.374Z,9.90
2023-03-17T05:56:00.961Z,8.70
2023-03-17T05:58:30.143Z,9.00
2023-03-17T06:03:32.035Z,7.90
2023-03-17T06:06:00.872Z,8.70
2023-03-17T06:08:29.919Z,8.60
2023-03-17T06:10:59.189Z,7.50
2023-03-17T06:13:27.583Z,10.30
2023-03-17T06:15:59.951Z,8.80
2023-03-17T06:18:31.622Z,9.70
2023-03-17T06:21:03.538Z,9.30
2023-03-17T06:23:35.523Z,8.60
2023-03-17T06:26:13.496Z,9.60
2023-03-17T06:28:44.496Z,9.40
2023-03-17T06:31:53.606Z,9.70
2023-03-17T06:34:27.582Z,9.40
2023-03-17T06:36:59.331Z,10.60
2023-03-17T06:39:54.211Z,10.60
2023-03-17T06:42:24.764Z,11.70
2023-03-17T06:44:55.533Z,11.20
2023-03-17T06:47:26.626Z,11.50
2023-03-17T06:50:01.785Z,11.00
2023-03-17T06:53:01.168Z,12.20
2023-03-17T06:55:32.977Z,12.60
2023-03-17T06:58:16.210Z,10.60
2023-03-17T07:00:49.661Z,10.30
2023-03-17T07:03:21.933Z,11.70
2023-03-17T07:05:55.302Z,11.20
2023-03-17T07:13:41.172Z,14.00
2023-03-17T07:23:42.939Z,14.50
2023-03-17T07:26:11.555Z,15.50
2023-03-17T07:28:47.060Z,15.20
2023-03-17T07:31:18.500Z,17.50
2023-03-17T07:34:12.929Z,17.30
2023-03-17T07:36:43.453Z,16.60
2023-03-17T07:39:12.188Z,17.10
2023-03-17T07:41:41.635Z,18.80
2023-03-17T07:44:11.675Z,20.70
2023-03-17T07:46:40.276Z,18.40
2023-03-17T07:49:09.556Z,18.60
2023-03-17T07:51:43.316Z,17.80
2023-03-17T07:54:14.848Z,18.10
2023-03-17T07:56:44.263Z,18.10
2023-03-17T07:59:12.685Z,17.50
2023-03-17T08:01:40.902Z,16.70
2023-03-17T08:04:11.098Z,15.30
2023-03-17T08:06:42.128Z,14.60
2023-03-17T08:09:11.482Z,12.40
2023-03-17T08:11:40.525Z,13.30
2023-03-17T08:14:09.756Z,12.10
2023-03-17T08:16:38.378Z,12.00
2023-03-17T08:19:08.016Z,13.50
2023-03-17T08:21:41.522Z,11.60
2023-03-17T08:24:10.356Z,10.80
2023-03-17T08:26:38.717Z,12.30
2023-03-17T08:29:39.982Z,11.20
2023-03-17T08:32:08.963Z,11.60
2023-03-17T08:34:37.707Z,11.10
2023-03-17T08:37:11.678Z,11.60
2023-03-17T08:39:45.787Z,11.90
2023-03-17T08:42:17.401Z,12.50
2023-03-17T08:44:45.961Z,11.50
2023-03-17T08:47:14.250Z,11.10
2023-03-17T08:49:44.017Z,11.00
2023-03-17T08:52:13.273Z,11.10
2023-03-17T08:54:42.657Z,10.10
2023-03-17T08:57:14.033Z,11.90
2023-03-17T08:59:44.022Z,13.90
2023-03-17T09:02:12.928Z,11.00
2023-03-17T09:04:42.710Z,12.40
2023-03-17T09:07:11.702Z,10.60
2023-03-17T09:09:40.233Z,10.40
2023-03-17T09:12:09.689Z,21.90
2023-03-17T09:14:44.096Z,28.90
2023-03-17T09:17:14.080Z,31.80
2023-03-17T09:19:43.780Z,21.00
2023-03-17T09:22:17.798Z,22.20
2023-03-17T09:24:46.859Z,24.00
2023-03-17T09:27:18.913Z,26.30
2023-03-17T09:29:47.643Z,18.60
2023-03-17T09:32:16.351Z,16.60
2023-03-17T09:37:40.309Z,14.80
2023-03-17T09:40:13.313Z,13.50
2023-03-17T09:42:50.677Z,12.40
2023-03-17T09:45:32.391Z,13.50
2023-03-17T09:48:08.669Z,13.00
2023-03-17T09:50:46.447Z,13.00
2023-03-17T09:53:20.999Z,23.50
2023-03-17T09:55:52.934Z,20.80
2023-03-17T10:01:20.382Z,24.40
2023-03-17T10:03:51.019Z,24.40
2023-03-17T10:07:01.632Z,26.70
2023-03-17T10:09:42.108Z,29.10
2023-03-17T10:12:16.003Z,25.40
2023-03-17T10:15:06.870Z,22.30
2023-03-17T10:17:37.006Z,23.40
2023-03-17T10:20:18.940Z,21.50
2023-03-17T10:22:49.181Z,16.20
2023-03-17T10:25:22.867Z,14.10
2023-03-17T10:28:16.285Z,13.10
2023-03-17T10:30:45.077Z,16.30
2023-03-17T10:33:13.558Z,18.40
2023-03-17T10:35:45.188Z,15.70
2023-03-17T10:46:01.051Z,10.60
2023-03-17T10:48:31.672Z,9.90
2023-03-17T10:51:00.417Z,9.90
2023-03-17T10:53:28.992Z,9.90
2023-03-17T10:56:11.219Z,9.20
2023-03-17T10:58:51.482Z,10.20
2023-03-17T11:01:28.118Z,9.10
2023-03-17T11:03:57.764Z,12.10
2023-03-17T11:06:44.641Z,15.90
2023-03-17T11:09:17.083Z,19.40
2023-03-17T11:12:02.028Z,19.80
2023-03-17T11:14:31.331Z,18.90
2023-03-17T11:17:13.657Z,16.80
2023-03-17T11:20:18.721Z,18.00
2023-03-17T11:22:55.154Z,16.20
2023-03-17T11:25:24.123Z,15.50
2023-03-17T11:28:17.097Z,15.40
2023-03-17T11:31:09.876Z,17.40
2023-03-17T11:34:03.143Z,16.90
2023-03-17T11:37:14.442Z,15.90
2023-03-17T11:40:04.367Z,19.30
2023-03-17T11:43:09.595Z,20.80
2023-03-17T11:45:41.192Z,20.50
2023-03-17T11:48:22.972Z,24.90
2023-03-17T11:51:12.652Z,24.00
2023-03-17T11:54:26.248Z,24.40
2023-03-17T11:57:03.468Z,20.60
2023-03-17T11:59:40.999Z,21.70
2023-03-17T12:02:32.759Z,24.90
2023-03-17T12:05:20.400Z,25.70
2023-03-17T12:07:53.397Z,28.40
2023-03-17T12:10:34.202Z,31.00
2023-03-17T12:13:07.500Z,30.40
2023-03-17T12:15:58.424Z,25.80
2023-03-17T12:19:11.646Z,26.50
2023-03-17T12:21:54.564Z,21.70
2023-03-17T12:24:26.971Z,15.10
2023-03-17T12:27:28.955Z,13.40
2023-03-17T12:29:58.168Z,11.60
2023-03-17T12:33:06.371Z,11.70
2023-03-17T12:35:39.170Z,9.70
2023-03-17T12:38:20.221Z,10.40
2023-03-17T12:41:18.528Z,9.20
2023-03-17T12:44:15.990Z,9.70
2023-03-17T12:46:55.075Z,9.40
2023-03-17T12:49:48.094Z,11.80
2023-03-17T12:52:39.619Z,10.70
2023-03-17T12:55:19.846Z,9.40
2023-03-17T12:58:25.882Z,11.30
2023-03-17T13:01:09.255Z,11.00
2023-03-17T13:03:38.885Z,10.40
2023-03-17T13:06:10.634Z,10.40
2023-03-17T13:08:45.648Z,9.80
2023-03-17T13:11:27.814Z,10.20
2023-03-17T13:13:59.658Z,10.10
2023-03-17T13:16:36.188Z,10.00
2023-03-17T13:19:24.390Z,10.50
2023-03-17T13:22:09.987Z,10.40
2023-03-17T13:24:48.614Z,10.10
2023-03-17T13:27:33.070Z,9.00
2023-03-17T13:30:37.261Z,9.60
2023-03-17T13:33:24.306Z,9.20
2023-03-17T13:36:12.155Z,10.50
2023-03-17T13:39:17.654Z,10.90
2023-03-17T13:42:17.986Z,11.00
2023-03-17T13:44:57.279Z,11.90
2023-03-17T13:47:28.878Z,11.60
2023-03-17T13:54:42.110Z,11.70
2023-03-17T13:57:29.915Z,12.20
2023-03-17T14:00:25.921Z,11.60
2023-03-17T14:03:27.922Z,11.70
2023-03-17T14:05:59.127Z,11.50
2023-03-17T14:08:31.628Z,11.70
2023-03-17T14:11:01.976Z,11.20
2023-03-17T14:14:15.148Z,11.90
2023-03-17T14:16:58.263Z,11.90
2023-03-17T14:19:32.447Z,12.50
2023-03-17T14:22:04.891Z,12.40
2023-03-17T14:24:33.940Z,11.90
2023-03-17T14:27:12.942Z,12.30
2023-03-17T14:29:42.082Z,11.90
2023-03-17T14:32:13.312Z,12.80
2023-03-17T14:34:46.635Z,12.30
2023-03-17T14:37:15.296Z,13.10
2023-03-17T14:39:45.265Z,13.60
2023-03-17T14:42:13.617Z,13.60
2023-03-17T14:44:43.495Z,12.80
2023-03-17T14:47:20.640Z,13.50
2023-03-17T14:50:17.020Z,14.40
2023-03-17T14:52:48.183Z,12.70
2023-03-17T14:55:16.790Z,12.20
2023-03-17T14:57:53.168Z,14.00
2023-03-17T15:00:32.351Z,12.20
2023-03-17T15:03:03.808Z,13.60
2023-03-17T15:05:38.916Z,13.20
2023-03-17T15:08:38.960Z,14.70
2023-03-17T15:11:17.236Z,12.70
2023-03-17T15:13:46.019Z,14.10
2023-03-17T15:16:23.392Z,13.80
2023-03-17T15:18:58.125Z,12.80
2023-03-17T15:21:32.901Z,12.30
2023-03-17T15:24:25.798Z,11.00
2023-03-17T15:27:03.072Z,8.70
2023-03-17T15:29:38.118Z,9.80
2023-03-17T15:32:11.446Z,8.10
2023-03-17T15:34:40.617Z,8.20
2023-03-17T15:37:19.357Z,8.00
2023-03-17T15:39:48.926Z,8.10
2023-03-17T15:42:19.520Z,7.90
2023-03-17T15:44:47.832Z,8.00
2023-03-17T15:47:17.996Z,7.80
2023-03-17T15:49:47.050Z,7.50
2023-03-17T15:52:17.276Z,8.30
2023-03-17T15:54:46.427Z,7.80
2023-03-17T15:57:14.722Z,7.20
2023-03-17T15:59:43.100Z,7.70
2023-03-17T16:02:34.331Z,6.90
2023-03-17T16:05:07.531Z,7.30
2023-03-17T16:07:36.276Z,7.40
2023-03-17T16:10:32.885Z,6.90
2023-03-17T16:13:01.456Z,7.60
2023-03-17T16:15:35.533Z,8.20
2023-03-17T16:18:06.015Z,8.30
2023-03-17T16:20:42.090Z,7.80
2023-03-17T16:23:19.554Z,9.20
2023-03-17T16:25:49.364Z,9.50
2023-03-17T16:28:25.168Z,9.70
2023-03-17T16:30:55.042Z,8.20
2023-03-17T16:33:25.143Z,8.60
2023-03-17T16:35:55.732Z,9.10
2023-03-17T16:38:25.755Z,9.10
2023-03-17T16:41:20.794Z,10.10
2023-03-17T16:43:52.346Z,10.10
2023-03-17T16:46:21.475Z,10.40
2023-03-17T16:48:51.404Z,12.40
2023-03-17T16:51:20.051Z,10.90
2023-03-17T16:53:50.632Z,11.00
2023-03-17T16:56:20.871Z,10.90
2023-03-17T16:58:52.125Z,10.50
2023-03-17T17:01:22.214Z,11.90
2023-03-17T17:03:54.470Z,13.10
2023-03-17T17:06:26.795Z,15.50
2023-03-17T17:08:55.137Z,16.10
2023-03-17T17:11:23.505Z,17.00
2023-03-17T17:13:52.012Z,18.10
2023-03-17T17:16:31.310Z,18.10
2023-03-17T17:18:59.862Z,17.50
2023-03-17T17:21:29.086Z,17.00
2023-03-17T17:23:58.898Z,16.70
2023-03-17T17:26:27.826Z,18.40
2023-03-17T17:28:56.556Z,20.80
2023-03-17T17:31:25.283Z,22.40
2023-03-17T17:33:54.221Z,23.50
2023-03-17T17:36:23.063Z,23.80
2023-03-17T17:38:52.166Z,26.10
2023-03-17T17:41:23.349Z,24.90
2023-03-17T17:43:53.890Z,24.00
2023-03-17T17:46:23.799Z,22.80
2023-03-17T17:48:52.757Z,24.30
2023-03-17T17:51:29.123Z,26.60
2023-03-17T17:53:58.319Z,25.50
2023-03-17T17:56:27.218Z,21.30
2023-03-17T17:58:58.001Z,26.40
2023-03-17T18:01:27.083Z,23.60
2023-03-17T18:04:03.609Z,22.70
2023-03-17T18:06:32.278Z,25.30
2023-03-17T18:09:02.105Z,31.20
2023-03-17T18:11:32.514Z,24.40
2023-03-17T18:14:01.389Z,24.00
2023-03-17T18:16:31.238Z,24.20
2023-03-17T18:19:00.670Z,25.30
2023-03-17T18:21:30.321Z,27.80
2023-03-17T18:23:58.795Z,25.90
2023-03-17T18:26:28.839Z,26.60
2023-03-17T18:28:57.542Z,33.70
2023-03-17T18:31:29.449Z,26.40
2023-03-17T18:34:00.573Z,28.70
2023-03-17T18:36:29.923Z,30.00
2023-03-17T18:38:59.024Z,25.90
2023-03-17T18:41:27.588Z,29.00
2023-03-17T18:43:56.379Z,28.90
2023-03-17T18:46:49.914Z,30.20
2023-03-17T18:49:21.517Z,30.00
2023-03-17T18:51:50.047Z,26.40
2023-03-17T18:54:18.256Z,27.70
2023-03-17T18:56:46.654Z,28.10
2023-03-17T18:59:15.706Z,25.60
2023-03-17T19:01:50.704Z,29.40
2023-03-17T19:04:19.249Z,29.20
2023-03-17T19:07:13.548Z,29.00
2023-03-17T19:09:44.069Z,29.90
2023-03-17T19:12:17.100Z,28.20
2023-03-17T19:14:45.718Z,26.60
2023-03-17T19:17:14.651Z,29.60
2023-03-17T19:19:44.401Z,26.30
2023-03-17T19:22:16.501Z,28.20
2023-03-17T19:25:37.154Z,30.00
2023-03-17T19:28:59.793Z,28.60
2023-03-17T19:31:28.552Z,28.00
2023-03-17T19:33:56.822Z,30.60
2023-03-17T19:36:25.626Z,30.30
2023-03-17T19:41:37.185Z,31.00
2023-03-17T19:46:38.556Z,30.20
2023-03-17T19:49:07.358Z,30.70
2023-03-17T19:51:36.160Z,37.40
2023-03-17T19:54:12.054Z,31.60
2023-03-17T19:56:43.749Z,34.10
2023-03-17T19:59:17.864Z,32.90
2023-03-17T20:01:50.494Z,32.00
2023-03-17T20:04:44.060Z,34.10
2023-03-17T20:07:17.589Z,33.60
2023-03-17T20:09:53.674Z,33.50
2023-03-17T20:12:46.927Z,33.60
2023-03-17T20:15:16.899Z,33.90
2023-03-17T20:17:45.924Z,33.40
2023-03-17T20:20:19.863Z,32.90
2023-03-17T20:23:15.125Z,33.80
2023-03-17T20:25:47.126Z,34.30
2023-03-17T20:28:17.806Z,34.00
2023-03-17T20:30:46.478Z,31.00
2023-03-17T20:33:16.915Z,31.40
2023-03-17T20:35:48.773Z,29.90
2023-03-17T20:38:19.080Z,31.00
2023-03-17T20:40:47.681Z,31.80
2023-03-17T20:43:20.322Z,34.30
2023-03-17T20:45:53.812Z,33.30
2023-03-17T20:48:24.820Z,33.80
2023-03-17T20:50:58.786Z,34.10
2023-03-17T20:53:30.551Z,35.40
2023-03-17T20:55:59.401Z,33.40
2023-03-17T20:58:29.934Z,34.00
2023-03-17T21:01:03.778Z,35.10
2023-03-17T21:03:32.654Z,31.50
2023-03-17T21:06:01.523Z,32.90
2023-03-17T21:08:31.442Z,30.10
2023-03-17T21:11:01.408Z,30.70
2023-03-17T21:13:29.780Z,32.90
2023-03-17T21:16:24.972Z,30.70
2023-03-17T21:18:53.892Z,30.70
2023-03-17T21:21:22.701Z,32.70
2023-03-17T21:23:51.383Z,28.50
2023-03-17T21:26:23.167Z,27.80
2023-03-17T21:28:52.768Z,31.20
2023-03-17T21:31:21.763Z,30.20
2023-03-17T21:33:50.907Z,27.80
2023-03-17T21:36:21.162Z,26.10
2023-03-17T21:38:49.415Z,27.30
2023-03-17T21:41:39.759Z,27.70
2023-03-17T21:44:09.921Z,26.40
2023-03-17T21:46:46.734Z,26.80
2023-03-17T21:49:17.422Z,26.70
2023-03-17T21:51:46.806Z,27.30
2023-03-17T21:54:15.656Z,25.20
2023-03-17T21:56:50.112Z,25.00
2023-03-17T21:59:19.138Z,26.30
2023-03-17T22:01:48.073Z,25.40
2023-03-17T22:07:41.344Z,33.90
2023-03-17T22:10:11.630Z,33.30
2023-03-17T22:12:40.437Z,35.60
2023-03-17T22:15:10.535Z,33.40
2023-03-17T22:19:24.676Z,30.70
2023-03-17T22:21:53.973Z,23.20
2023-03-17T22:24:23.286Z,23.50
2023-03-17T22:26:51.700Z,22.60
2023-03-17T22:29:23.320Z,25.30
2023-03-17T22:31:52.583Z,23.00
2023-03-17T22:34:20.849Z,25.10
2023-03-17T22:36:53.035Z,26.60
2023-03-17T22:39:21.288Z,26.80
2023-03-17T22:41:58.056Z,28.20
2023-03-17T22:44:26.455Z,38.00
2023-03-17T22:46:54.897Z,38.60
2023-03-17T22:49:24.015Z,40.10
2023-03-17T22:51:52.256Z,44.70
2023-03-17T22:54:22.097Z,44.00
2023-03-17T22:56:54.121Z,33.40
2023-03-17T22:59:22.473Z,30.50
2023-03-17T23:01:53.070Z,30.90
2023-03-17T23:04:21.691Z,27.60
2023-03-17T23:06:53.088Z,28.20
2023-03-17T23:09:21.489Z,29.40
2023-03-17T23:11:53.538Z,27.90
2023-03-17T23:14:25.097Z,27.40
2023-03-17T23:16:53.534Z,29.00
2023-03-17T23:21:55.136Z,26.80
2023-03-17T23:24:24.295Z,27.90
2023-03-17T23:26:55.941Z,29.90
2023-03-17T23:29:24.635Z,32.10
2023-03-17T23:31:52.809Z,32.00
2023-03-17T23:34:22.660Z,33.80
2023-03-17T23:36:50.891Z,32.80
2023-03-17T23:39:20.925Z,27.00
2023-03-17T23:41:49.353Z,25.10
2023-03-17T23:44:22.164Z,26.00
2023-03-17T23:46:51.584Z,25.50
2023-03-17T23:49:19.847Z,29.60
2023-03-17T23:51:49.541Z,27.60
2023-03-17T23:54:18.257Z,28.50
2023-03-17T23:56:52.897Z,23.80
2023-03-17T23:59:21.247Z,27.40
